createdAt,value
2023-02-14T00:01:11.584Z,33.73
2023-02-14T00:03:40.392Z,40.10
2023-02-14T00:06:09.546Z,34.87
2023-02-14T00:08:36.720Z,30.83
2023-02-14T00:11:05.265Z,31.87
2023-02-14T00:13:32.223Z,33.13
2023-02-14T00:15:59.144Z,36.10
2023-02-14T00:18:46.484Z,34.30
2023-02-14T00:21:15.338Z,34.43
2023-02-14T00:23:42.308Z,31.57
2023-02-14T00:26:14.854Z,31.30
2023-02-14T00:28:42.022Z,30.77
2023-02-14T00:31:09.535Z,30.47
2023-02-14T00:33:37.743Z,29.30
2023-02-14T00:36:06.926Z,30.00
2023-02-14T00:38:35.241Z,28.13
2023-02-14T00:41:02.666Z,28.97
2023-02-14T00:43:29.854Z,25.77
2023-02-14T00:45:57.505Z,28.83
2023-02-14T00:48:24.605Z,26.57
2023-02-14T00:50:51.534Z,25.87
2023-02-14T00:53:18.442Z,27.17
2023-02-14T00:55:49.303Z,26.77
2023-02-14T00:58:16.151Z,23.93
2023-02-14T01:00:43.023Z,26.37
2023-02-14T01:03:10.252Z,23.17
2023-02-14T01:05:37.302Z,22.77
2023-02-14T01:08:04.862Z,21.73
2023-02-14T01:10:31.743Z,22.27
2023-02-14T01:12:59.961Z,21.57
2023-02-14T01:15:26.890Z,22.47
2023-02-14T01:17:53.830Z,22.53
2023-02-14T01:20:20.893Z,21.83
2023-02-14T01:22:47.773Z,21.17
2023-02-14T01:25:14.895Z,21.97
2023-02-14T01:27:41.985Z,21.23
2023-02-14T01:30:12.731Z,19.00
2023-02-14T01:32:39.654Z,21.03
2023-02-14T01:35:07.136Z,22.33
2023-02-14T01:37:34.025Z,20.27
2023-02-14T01:40:02.330Z,18.93
2023-02-14T01:42:29.425Z,19.90
2023-02-14T01:45:02.302Z,20.53
2023-02-14T01:47:36.994Z,19.33
2023-02-14T01:50:10.137Z,22.80
2023-02-14T01:52:44.390Z,19.57
2023-02-14T01:55:19.160Z,19.10
2023-02-14T01:57:52.221Z,21.50
2023-02-14T02:00:39.598Z,22.83
2023-02-14T02:03:09.378Z,21.47
2023-02-14T02:05:40.836Z,20.20
2023-02-14T02:08:08.385Z,22.33
2023-02-14T02:10:35.245Z,22.07
2023-02-14T02:13:07.280Z,21.83
2023-02-14T02:15:46.171Z,25.40
2023-02-14T02:18:26.629Z,22.93
2023-02-14T02:21:38.754Z,25.57
2023-02-14T02:24:33.643Z,23.73
2023-02-14T02:27:31.431Z,22.37
2023-02-14T02:30:34.724Z,21.53
2023-02-14T02:33:50.798Z,25.10
2023-02-14T02:36:49.462Z,27.87
2023-02-14T02:39:34.460Z,25.53
2023-02-14T02:42:10.503Z,21.73
2023-02-14T02:44:51.982Z,25.50
2023-02-14T02:47:32.726Z,24.53
2023-02-14T02:50:30.588Z,24.30
2023-02-14T02:53:13.255Z,23.57
2023-02-14T02:56:03.323Z,24.57
2023-02-14T02:58:36.786Z,26.00
2023-02-14T03:01:11.338Z,24.83
2023-02-14T03:04:01.269Z,25.77
2023-02-14T03:06:30.733Z,25.70
2023-02-14T03:09:10.402Z,25.17
2023-02-14T03:11:49.101Z,24.07
2023-02-14T03:14:26.174Z,26.23
2023-02-14T03:17:05.209Z,24.97
2023-02-14T03:20:10.416Z,25.67
2023-02-14T03:22:51.398Z,26.87
2023-02-14T03:25:37.144Z,26.90
2023-02-14T03:28:16.993Z,24.60
2023-02-14T03:30:57.308Z,25.83
2023-02-14T03:33:32.998Z,28.13
2023-02-14T03:36:08.148Z,24.20
2023-02-14T03:38:43.822Z,26.60
2023-02-14T03:41:21.052Z,23.70
2023-02-14T03:43:53.754Z,23.17
2023-02-14T03:46:26.690Z,29.20
2023-02-14T03:48:58.084Z,25.80
2023-02-14T03:51:34.112Z,24.63
2023-02-14T03:54:04.674Z,24.37
2023-02-14T03:56:40.657Z,27.20
2023-02-14T03:59:15.496Z,29.93
2023-02-14T04:01:50.417Z,27.70
2023-02-14T04:04:22.497Z,25.60
2023-02-14T04:06:49.525Z,28.63
2023-02-14T04:09:16.495Z,28.10
2023-02-14T04:11:46.333Z,26.33
2023-02-14T04:14:13.371Z,28.13
2023-02-14T04:16:59.054Z,26.10
2023-02-14T04:19:26.110Z,25.80
2023-02-14T04:21:53.334Z,24.40
2023-02-14T04:24:20.711Z,24.77
2023-02-14T04:27:10.555Z,26.83
2023-02-14T04:29:39.777Z,27.60
2023-02-14T04:32:08.984Z,29.37
2023-02-14T04:34:36.889Z,27.20
2023-02-14T04:37:05.084Z,26.37
2023-02-14T04:39:32.367Z,28.53
2023-02-14T04:42:00.987Z,28.27
2023-02-14T04:44:28.026Z,29.03
2023-02-14T04:46:55.005Z,28.80
2023-02-14T04:49:22.159Z,31.20
2023-02-14T04:51:49.110Z,31.10
2023-02-14T04:54:16.022Z,29.33
2023-02-14T04:56:42.991Z,29.73
2023-02-14T04:59:11.367Z,33.37
2023-02-14T05:01:38.263Z,29.63
2023-02-14T05:04:05.640Z,28.83
2023-02-14T05:06:33.600Z,30.17
2023-02-14T05:09:01.014Z,26.53
2023-02-14T05:11:28.819Z,33.67
2023-02-14T05:13:55.850Z,29.87
2023-02-14T05:16:24.680Z,30.10
2023-02-14T05:18:51.705Z,26.07
2023-02-14T05:21:18.820Z,31.07
2023-02-14T05:23:45.797Z,27.53
2023-02-14T05:26:12.740Z,28.07
2023-02-14T05:28:40.966Z,33.00
2023-02-14T05:31:08.536Z,29.03
2023-02-14T05:33:36.913Z,29.83
2023-02-14T05:36:04.692Z,29.40
2023-02-14T05:38:33.399Z,30.93
2023-02-14T05:41:00.935Z,33.40
2023-02-14T05:43:28.241Z,33.00
2023-02-14T05:45:55.303Z,29.67
2023-02-14T05:48:22.716Z,29.83
2023-02-14T05:50:51.177Z,36.23
2023-02-14T05:53:18.149Z,32.93
2023-02-14T05:55:45.178Z,35.07
2023-02-14T05:58:12.492Z,31.97
2023-02-14T06:00:41.335Z,32.87
2023-02-14T06:03:08.725Z,32.10
2023-02-14T06:05:35.839Z,27.70
2023-02-14T06:08:04.233Z,33.77
2023-02-14T06:10:33.740Z,32.53
2023-02-14T06:13:01.010Z,34.50
2023-02-14T06:15:28.296Z,34.50
2023-02-14T06:17:57.500Z,29.93
2023-02-14T06:20:25.309Z,29.30
2023-02-14T06:22:52.874Z,34.83
2023-02-14T06:25:21.346Z,36.80
2023-02-14T06:27:49.440Z,33.60
2023-02-14T06:30:18.195Z,36.90
2023-02-14T06:32:45.331Z,33.57
2023-02-14T06:35:13.644Z,30.00
2023-02-14T06:37:42.111Z,34.47
2023-02-14T06:40:10.981Z,32.33
2023-02-14T06:42:39.922Z,30.07
2023-02-14T06:45:08.758Z,30.43
2023-02-14T06:47:35.745Z,31.37
2023-02-14T06:50:04.954Z,32.23
2023-02-14T06:52:32.045Z,29.77
2023-02-14T06:54:58.945Z,31.40
2023-02-14T06:57:26.758Z,32.73
2023-02-14T06:59:55.037Z,31.63
2023-02-14T07:02:24.748Z,27.30
2023-02-14T07:04:52.102Z,28.43
2023-02-14T07:07:19.174Z,31.03
2023-02-14T07:09:46.196Z,35.37
2023-02-14T07:12:14.695Z,30.57
2023-02-14T07:14:42.429Z,27.33
2023-02-14T07:17:11.484Z,32.83
2023-02-14T07:19:38.575Z,32.80
2023-02-14T07:22:05.866Z,31.83
2023-02-14T07:24:34.069Z,28.33
2023-02-14T07:27:01.041Z,30.10
2023-02-14T07:29:27.942Z,30.33
2023-02-14T07:31:55.201Z,28.97
2023-02-14T07:34:24.130Z,30.27
2023-02-14T07:36:51.081Z,29.90
2023-02-14T07:39:17.937Z,26.57
2023-02-14T07:41:44.856Z,25.80
2023-02-14T07:44:11.905Z,29.33
2023-02-14T07:46:39.938Z,25.90
2023-02-14T07:49:07.486Z,27.90
2023-02-14T07:51:35.774Z,27.23
2023-02-14T07:54:02.745Z,25.47
2023-02-14T07:56:29.722Z,27.97
2023-02-14T07:58:56.613Z,24.23
2023-02-14T08:01:23.720Z,22.90
2023-02-14T08:03:51.437Z,23.90
2023-02-14T08:06:19.742Z,23.43
2023-02-14T08:08:48.742Z,23.80
2023-02-14T08:11:35.958Z,19.60
2023-02-14T08:14:03.406Z,22.63
2023-02-14T08:16:32.352Z,22.23
2023-02-14T08:19:00.363Z,24.10
2023-02-14T08:21:29.762Z,24.50
2023-02-14T08:23:58.081Z,30.53
2023-02-14T08:26:25.425Z,21.37
2023-02-14T08:28:52.977Z,20.80
2023-02-14T08:31:34.350Z,20.00
2023-02-14T08:34:01.837Z,22.37
2023-02-14T08:36:29.487Z,20.83
2023-02-14T08:38:57.961Z,23.20
2023-02-14T08:41:25.439Z,21.40
2023-02-14T08:43:52.665Z,20.73
2023-02-14T08:46:19.644Z,18.77
2023-02-14T08:48:46.732Z,21.80
2023-02-14T08:51:14.925Z,23.47
2023-02-14T08:53:43.341Z,20.40
2023-02-14T08:56:14.291Z,21.17
2023-02-14T08:58:41.563Z,19.20
2023-02-14T09:01:09.717Z,19.60
2023-02-14T09:03:38.701Z,19.90
2023-02-14T09:06:08.639Z,18.57
2023-02-14T09:08:36.830Z,20.03
2023-02-14T09:11:08.150Z,20.50
2023-02-14T09:13:36.843Z,18.63
2023-02-14T09:16:04.833Z,20.33
2023-02-14T09:18:32.121Z,21.53
2023-02-14T09:20:59.550Z,21.53
2023-02-14T09:23:26.636Z,18.77
2023-02-14T09:26:01.181Z,16.80
2023-02-14T09:28:28.912Z,16.10
2023-02-14T09:30:57.831Z,17.43
2023-02-14T09:33:28.921Z,17.53
2023-02-14T09:36:18.852Z,17.00
2023-02-14T09:38:46.700Z,15.73
2023-02-14T09:42:04.086Z,17.80
2023-02-14T09:44:39.419Z,16.73
2023-02-14T09:47:20.428Z,16.97
2023-02-14T09:49:50.638Z,19.40
2023-02-14T09:52:22.637Z,16.00
2023-02-14T09:54:57.722Z,16.30
2023-02-14T09:57:41.744Z,17.97
2023-02-14T10:00:25.199Z,15.87
2023-02-14T10:03:33.412Z,16.40
2023-02-14T10:06:12.387Z,17.83
2023-02-14T10:09:00.802Z,16.83
2023-02-14T10:11:28.603Z,17.40
2023-02-14T10:14:04.160Z,17.17
2023-02-14T10:16:38.875Z,16.27
2023-02-14T10:19:19.646Z,15.53
2023-02-14T10:21:54.869Z,16.60
2023-02-14T10:24:28.153Z,16.00
2023-02-14T10:29:45.382Z,16.50
2023-02-14T10:32:23.342Z,17.07
2023-02-14T10:35:00.044Z,14.73
2023-02-14T10:37:50.693Z,15.63
2023-02-14T10:40:39.450Z,15.37
2023-02-14T10:43:19.525Z,18.60
2023-02-14T10:46:05.104Z,14.00
2023-02-14T10:48:47.359Z,17.93
2023-02-14T10:51:22.108Z,16.83
2023-02-14T10:54:02.985Z,16.87
2023-02-14T10:56:38.337Z,17.80
2023-02-14T10:59:21.955Z,24.07
2023-02-14T11:01:52.987Z,15.97
2023-02-14T11:04:23.163Z,17.57
2023-02-14T11:06:52.629Z,15.20
2023-02-14T11:09:20.338Z,18.27
2023-02-14T11:11:53.093Z,16.23
2023-02-14T11:14:24.654Z,15.83
2023-02-14T11:16:54.140Z,16.30
2023-02-14T11:19:25.987Z,21.20
2023-02-14T11:21:57.964Z,17.63
2023-02-14T11:24:31.350Z,18.07
2023-02-14T11:27:02.149Z,19.83
2023-02-14T11:29:36.477Z,21.07
2023-02-14T11:32:09.781Z,18.67
2023-02-14T11:34:41.312Z,16.90
2023-02-14T11:37:28.867Z,16.03
2023-02-14T11:39:59.402Z,15.47
2023-02-14T11:42:42.741Z,15.73
2023-02-14T11:45:29.336Z,14.40
2023-02-14T11:48:17.774Z,15.30
2023-02-14T11:50:56.473Z,16.13
2023-02-14T11:53:28.742Z,15.37
2023-02-14T11:55:59.008Z,14.87
2023-02-14T11:58:34.524Z,17.23
2023-02-14T12:01:02.992Z,15.77
2023-02-14T12:03:39.728Z,17.23
2023-02-14T12:06:06.883Z,21.07
2023-02-14T12:08:38.899Z,14.50
2023-02-14T12:11:21.339Z,13.13
2023-02-14T12:13:56.956Z,13.37
2023-02-14T12:16:35.167Z,16.90
2023-02-14T12:19:07.367Z,17.83
2023-02-14T12:21:48.270Z,14.63
2023-02-14T12:24:33.517Z,30.97
2023-02-14T12:27:20.088Z,16.43
2023-02-14T12:29:54.630Z,13.90
2023-02-14T12:32:25.668Z,13.13
2023-02-14T12:35:00.654Z,12.23
2023-02-14T12:37:40.537Z,19.17
2023-02-14T12:40:20.500Z,12.53
2023-02-14T12:43:18.437Z,12.93
2023-02-14T12:46:18.501Z,26.37
2023-02-14T12:49:13.287Z,15.67
2023-02-14T12:51:51.672Z,14.10
2023-02-14T12:54:44.291Z,12.00
2023-02-14T12:57:32.411Z,14.23
2023-02-14T13:00:17.343Z,13.70
2023-02-14T13:03:21.990Z,14.20
2023-02-14T13:06:00.348Z,12.03
2023-02-14T13:08:50.253Z,12.57
2023-02-14T13:11:33.524Z,10.13
2023-02-14T13:14:18.631Z,10.83
2023-02-14T13:16:54.509Z,11.90
2023-02-14T13:19:39.441Z,17.17
2023-02-14T13:22:13.292Z,12.27
2023-02-14T13:24:44.523Z,10.63
2023-02-14T13:27:21.940Z,12.03
2023-02-14T13:29:54.820Z,11.50
2023-02-14T13:32:27.450Z,8.83
2023-02-14T13:34:56.136Z,14.43
2023-02-14T13:37:27.353Z,10.37
2023-02-14T13:40:00.964Z,9.40
2023-02-14T13:42:53.305Z,10.73
2023-02-14T13:45:54.570Z,9.53
2023-02-14T13:48:26.017Z,10.77
2023-02-14T13:50:57.208Z,10.60
2023-02-14T13:53:37.328Z,11.57
2023-02-14T13:56:21.683Z,11.43
2023-02-14T13:58:52.902Z,14.13
2023-02-14T14:01:35.920Z,13.27
2023-02-14T14:04:26.294Z,14.67
2023-02-14T14:07:19.227Z,12.80
2023-02-14T14:09:58.852Z,16.03
2023-02-14T14:12:43.620Z,14.53
2023-02-14T14:15:20.666Z,11.43
2023-02-14T14:18:29.759Z,11.73
2023-02-14T14:20:57.648Z,11.70
2023-02-14T14:23:35.244Z,11.63
2023-02-14T14:26:03.587Z,14.63
2023-02-14T14:28:33.135Z,10.10
2023-02-14T14:31:00.284Z,11.73
2023-02-14T14:33:31.625Z,11.50
2023-02-14T14:36:02.850Z,13.53
2023-02-14T14:38:34.309Z,10.40
2023-02-14T14:41:02.495Z,11.00
2023-02-14T14:43:32.842Z,12.07
2023-02-14T14:46:03.347Z,9.63
2023-02-14T14:48:37.071Z,11.23
2023-02-14T14:51:07.285Z,9.87
2023-02-14T14:53:45.556Z,15.03
2023-02-14T14:56:14.069Z,11.23
2023-02-14T14:58:42.107Z,16.97
2023-02-14T15:01:21.148Z,11.80
2023-02-14T15:03:48.350Z,12.57
2023-02-14T15:06:20.055Z,10.70
2023-02-14T15:08:49.664Z,10.60
2023-02-14T15:11:40.986Z,10.10
2023-02-14T15:14:21.511Z,11.33
2023-02-14T15:16:53.742Z,11.87
2023-02-14T15:19:33.401Z,10.53
2023-02-14T15:22:02.461Z,11.47
2023-02-14T15:24:34.998Z,12.83
2023-02-14T15:27:02.950Z,13.60
2023-02-14T15:29:33.005Z,11.53
2023-02-14T15:32:03.368Z,13.43
2023-02-14T15:34:36.064Z,12.33
2023-02-14T15:37:06.876Z,10.90
2023-02-14T15:39:41.698Z,11.57
2023-02-14T15:42:22.776Z,11.67
2023-02-14T15:44:49.736Z,12.67
2023-02-14T15:47:16.918Z,12.47
2023-02-14T15:49:46.514Z,11.57
2023-02-14T15:52:16.090Z,12.73
2023-02-14T15:54:47.382Z,11.60
2023-02-14T15:57:25.345Z,12.20
2023-02-14T15:59:53.590Z,11.63
2023-02-14T16:02:32.862Z,11.83
2023-02-14T16:05:07.742Z,11.97
2023-02-14T16:07:34.851Z,12.57
2023-02-14T16:10:24.465Z,9.90
2023-02-14T16:13:01.540Z,10.40
2023-02-14T16:15:31.886Z,10.10
2023-02-14T16:17:59.663Z,10.47
2023-02-14T16:20:39.656Z,11.77
2023-02-14T16:23:31.387Z,15.87
2023-02-14T16:25:59.841Z,11.97
2023-02-14T16:28:30.249Z,11.33
2023-02-14T16:31:00.619Z,12.27
2023-02-14T16:33:32.159Z,12.33
2023-02-14T16:36:06.716Z,11.87
2023-02-14T16:38:44.050Z,10.87
2023-02-14T16:41:23.076Z,12.10
2023-02-14T16:43:51.065Z,15.80
2023-02-14T16:46:21.942Z,11.50
2023-02-14T16:48:52.135Z,10.60
2023-02-14T16:51:21.521Z,11.87
2023-02-14T16:53:50.400Z,10.70
2023-02-14T16:56:25.904Z,10.57
2023-02-14T16:58:53.132Z,12.97
2023-02-14T17:01:20.304Z,12.00
2023-02-14T17:03:47.286Z,11.57
2023-02-14T17:06:20.143Z,12.03
2023-02-14T17:08:50.745Z,15.43
2023-02-14T17:11:20.306Z,17.57
2023-02-14T17:13:49.002Z,13.23
2023-02-14T17:16:17.169Z,13.93
2023-02-14T17:18:48.681Z,14.03
2023-02-14T17:21:19.773Z,14.00
2023-02-14T17:23:46.753Z,13.17
2023-02-14T17:26:14.256Z,14.53
2023-02-14T17:28:42.538Z,14.40
2023-02-14T17:31:09.875Z,15.87
2023-02-14T17:33:37.023Z,16.00
2023-02-14T17:36:06.576Z,27.27
2023-02-14T17:38:34.718Z,27.07
2023-02-14T17:41:12.141Z,21.47
2023-02-14T17:43:39.212Z,16.97
2023-02-14T17:46:07.777Z,15.73
2023-02-14T17:48:34.811Z,16.50
2023-02-14T17:51:04.985Z,16.47
2023-02-14T17:53:33.815Z,16.23
2023-02-14T17:56:06.273Z,16.07
2023-02-14T17:58:33.320Z,14.40
2023-02-14T18:01:04.631Z,16.80
2023-02-14T18:03:34.119Z,17.13
2023-02-14T18:06:02.335Z,16.53
2023-02-14T18:08:31.908Z,17.17
2023-02-14T18:10:59.463Z,15.20
2023-02-14T18:13:29.008Z,16.10
2023-02-14T18:16:02.529Z,15.60
2023-02-14T18:18:29.682Z,18.70
2023-02-14T18:21:00.964Z,16.93
2023-02-14T18:23:30.648Z,15.57
2023-02-14T18:26:01.311Z,17.47
2023-02-14T18:28:28.628Z,17.03
2023-02-14T18:30:57.853Z,16.43
2023-02-14T18:33:25.722Z,17.07
2023-02-14T18:35:52.676Z,19.80
2023-02-14T18:38:20.934Z,20.27
2023-02-14T18:40:47.899Z,22.77
2023-02-14T18:43:14.812Z,20.40
2023-02-14T18:45:41.751Z,19.03
2023-02-14T18:48:09.009Z,22.30
2023-02-14T18:50:36.240Z,18.83
2023-02-14T18:53:03.257Z,21.10
2023-02-14T18:55:31.599Z,17.83
2023-02-14T18:57:58.502Z,19.23
2023-02-14T19:00:27.014Z,18.33
2023-02-14T19:02:53.972Z,21.90
2023-02-14T19:05:20.953Z,18.53
2023-02-14T19:07:47.853Z,18.30
2023-02-14T19:10:14.794Z,16.33
2023-02-14T19:12:43.113Z,17.83
2023-02-14T19:15:10.160Z,15.47
2023-02-14T19:17:38.105Z,18.00
2023-02-14T19:20:09.422Z,15.07
2023-02-14T19:22:41.091Z,18.40
2023-02-14T19:25:08.908Z,15.73
2023-02-14T19:27:36.912Z,15.43
2023-02-14T19:30:07.083Z,14.17
2023-02-14T19:32:33.994Z,15.53
2023-02-14T19:35:01.251Z,17.20
2023-02-14T19:37:28.124Z,16.30
2023-02-14T19:39:55.027Z,18.37
2023-02-14T19:42:21.894Z,16.37
2023-02-14T19:44:48.821Z,17.47
2023-02-14T19:47:30.991Z,16.97
2023-02-14T19:50:00.782Z,16.17
2023-02-14T19:52:28.121Z,15.73
2023-02-14T19:54:58.028Z,18.20
2023-02-14T19:57:25.224Z,18.37
2023-02-14T19:59:52.176Z,19.53
2023-02-14T20:02:21.802Z,18.10
2023-02-14T20:04:48.955Z,18.27
2023-02-14T20:07:17.308Z,16.90
2023-02-14T20:09:44.380Z,16.27
2023-02-14T20:12:11.471Z,16.93
2023-02-14T20:14:50.226Z,16.87
2023-02-14T20:17:18.609Z,15.43
2023-02-14T20:19:47.037Z,17.47
2023-02-14T20:22:14.074Z,16.93
2023-02-14T20:24:40.973Z,17.27
2023-02-14T20:27:08.010Z,17.33
2023-02-14T20:29:35.059Z,16.33
2023-02-14T20:32:04.758Z,17.90
2023-02-14T20:34:31.791Z,18.07
2023-02-14T20:37:00.258Z,16.20
2023-02-14T20:39:30.675Z,15.30
2023-02-14T20:41:58.429Z,17.13
2023-02-14T20:44:26.220Z,19.53
2023-02-14T20:46:55.690Z,17.17
2023-02-14T20:49:25.554Z,16.07
2023-02-14T20:51:53.155Z,16.33
2023-02-14T20:54:25.316Z,15.83
2023-02-14T20:56:53.327Z,15.07
2023-02-14T20:59:26.918Z,15.70
2023-02-14T21:01:54.904Z,18.37
2023-02-14T21:04:22.317Z,17.23
2023-02-14T21:06:49.302Z,16.20
2023-02-14T21:09:18.448Z,17.47
2023-02-14T21:11:46.728Z,15.47
2023-02-14T21:14:13.698Z,16.70
2023-02-14T21:16:40.617Z,16.57
2023-02-14T21:19:07.595Z,16.97
2023-02-14T21:21:37.133Z,18.87
2023-02-14T21:24:07.749Z,18.33
2023-02-14T21:26:35.182Z,16.00
2023-02-14T21:29:04.256Z,19.57
2023-02-14T21:31:31.841Z,17.20
2023-02-14T21:34:01.497Z,16.87
2023-02-14T21:36:31.485Z,19.10
2023-02-14T21:38:59.922Z,20.57
2023-02-14T21:41:30.145Z,20.23
2023-02-14T21:43:59.126Z,17.27
2023-02-14T21:46:31.048Z,17.37
2023-02-14T21:49:18.673Z,18.70
2023-02-14T21:51:46.892Z,16.17
2023-02-14T21:54:14.805Z,23.07
2023-02-14T21:56:42.434Z,17.93
2023-02-14T21:59:09.693Z,17.27
2023-02-14T22:01:41.909Z,17.90
2023-02-14T22:04:11.543Z,15.57
2023-02-14T22:06:41.465Z,17.17
2023-02-14T22:09:10.960Z,17.47
2023-02-14T22:11:38.168Z,17.20
2023-02-14T22:14:05.255Z,15.70
2023-02-14T22:16:32.658Z,20.90
2023-02-14T22:19:00.858Z,17.23
2023-02-14T22:21:30.101Z,16.83
2023-02-14T22:23:56.957Z,18.53
2023-02-14T22:26:26.533Z,17.73
2023-02-14T22:28:56.988Z,18.67
2023-02-14T22:31:26.589Z,17.47
2023-02-14T22:33:54.048Z,16.17
2023-02-14T22:36:22.448Z,15.77
2023-02-14T22:38:49.577Z,19.53
2023-02-14T22:41:19.064Z,20.10
2023-02-14T22:43:46.592Z,16.70
2023-02-14T22:46:17.377Z,18.40
2023-02-14T22:48:46.269Z,19.33
2023-02-14T22:51:20.779Z,16.27
2023-02-14T22:53:50.644Z,18.73
2023-02-14T22:56:20.219Z,16.97
2023-02-14T22:58:47.571Z,23.10
2023-02-14T23:01:16.863Z,19.27
2023-02-14T23:03:45.530Z,19.17
2023-02-14T23:06:14.732Z,18.77
2023-02-14T23:08:44.054Z,15.97
2023-02-14T23:11:15.884Z,19.63
2023-02-14T23:14:01.845Z,20.10
2023-02-14T23:16:47.549Z,20.93
2023-02-14T23:19:36.201Z,19.67
2023-02-14T23:22:09.925Z,18.43
2023-02-14T23:24:37.227Z,16.70
2023-02-14T23:27:06.336Z,19.20
2023-02-14T23:29:33.788Z,20.57
2023-02-14T23:32:00.731Z,18.60
2023-02-14T23:34:30.620Z,17.37
2023-02-14T23:36:58.021Z,22.13
2023-02-14T23:39:25.654Z,19.83
2023-02-14T23:41:53.224Z,17.57
2023-02-14T23:44:24.620Z,20.63
2023-02-14T23:46:55.244Z,19.50
2023-02-14T23:49:23.920Z,20.03
2023-02-14T23:51:52.979Z,21.33
2023-02-14T23:54:22.170Z,20.17
2023-02-14T23:56:50.036Z,19.10
2023-02-14T23:59:17.022Z,20.67
